sensor_id;sensor_type;location;lat;lon;timestamp;P1;durP1;ratioP1;P2;durP2;ratioP2
75774;SDS011;64505;51.458;7.556;2023-02-28T00:00:54;6.88;;;2.70;;
75774;SDS011;64505;51.458;7.556;2023-02-28T00:02:56;9.95;;;2.80;;
75774;SDS011;64505;51.458;7.556;2023-02-28T00:04:58;5.05;;;2.35;;
75774;SDS011;64505;51.458;7.556;2023-02-28T00:07:02;5.63;;;2.45;;
75774;SDS011;64505;51.458;7.556;2023-02-28T00:09:03;6.13;;;2.70;;
75774;SDS011;64505;51.458;7.556;2023-02-28T00:11:05;6.43;;;2.63;;
75774;SDS011;64505;51.458;7.556;2023-02-28T00:13:08;9.40;;;2.78;;
75774;SDS011;64505;51.458;7.556;2023-02-28T00:15:10;7.63;;;3.60;;
75774;SDS011;64505;51.458;7.556;2023-02-28T00:17:12;7.28;;;2.30;;
75774;SDS011;64505;51.458;7.556;2023-02-28T00:19:16;6.82;;;2.55;;
75774;SDS011;64505;51.458;7.556;2023-02-28T00:21:18;5.95;;;2.60;;
75774;SDS011;64505;51.458;7.556;2023-02-28T00:23:20;5.47;;;2.40;;
75774;SDS011;64505;51.458;7.556;2023-02-28T00:25:23;6.32;;;2.33;;
75774;SDS011;64505;51.458;7.556;2023-02-28T00:27:25;4.97;;;2.60;;
75774;SDS011;64505;51.458;7.556;2023-02-28T00:29:27;5.05;;;2.40;;
75774;SDS011;64505;51.458;7.556;2023-02-28T00:31:28;5.88;;;2.15;;
75774;SDS011;64505;51.458;7.556;2023-02-28T00:33:30;6.90;;;2.53;;
75774;SDS011;64505;51.458;7.556;2023-02-28T00:35:32;7.28;;;2.70;;
75774;SDS011;64505;51.458;7.556;2023-02-28T00:37:33;5.78;;;2.20;;
75774;SDS011;64505;51.458;7.556;2023-02-28T00:39:35;6.78;;;2.20;;
75774;SDS011;64505;51.458;7.556;2023-02-28T00:41:38;6.80;;;2.30;;
75774;SDS011;64505;51.458;7.556;2023-02-28T00:43:39;4.93;;;2.60;;
75774;SDS011;64505;51.458;7.556;2023-02-28T00:45:41;7.03;;;2.45;;
75774;SDS011;64505;51.458;7.556;2023-02-28T00:47:42;4.38;;;2.22;;
75774;SDS011;64505;51.458;7.556;2023-02-28T00:49:44;5.50;;;2.47;;
75774;SDS011;64505;51.458;7.556;2023-02-28T00:51:45;6.65;;;2.25;;
75774;SDS011;64505;51.458;7.556;2023-02-28T00:53:47;6.88;;;2.30;;
75774;SDS011;64505;51.458;7.556;2023-02-28T00:55:49;5.75;;;2.20;;
75774;SDS011;64505;51.458;7.556;2023-02-28T00:57:51;6.38;;;2.30;;
75774;SDS011;64505;51.458;7.556;2023-02-28T00:59:56;6.70;;;3.28;;
75774;SDS011;64505;51.458;7.556;2023-02-28T01:01:58;6.72;;;2.47;;
75774;SDS011;64505;51.458;7.556;2023-02-28T01:03:59;6.88;;;2.60;;
75774;SDS011;64505;51.458;7.556;2023-02-28T01:06:01;7.97;;;3.00;;
75774;SDS011;64505;51.458;7.556;2023-02-28T01:08:03;8.52;;;2.40;;
75774;SDS011;64505;51.458;7.556;2023-02-28T01:10:05;10.65;;;3.08;;
75774;SDS011;64505;51.458;7.556;2023-02-28T01:12:07;5.10;;;2.17;;
75774;SDS011;64505;51.458;7.556;2023-02-28T01:14:12;9.45;;;2.70;;
75774;SDS011;64505;51.458;7.556;2023-02-28T01:16:15;8.02;;;2.38;;
75774;SDS011;64505;51.458;7.556;2023-02-28T01:18:16;5.30;;;2.05;;
75774;SDS011;64505;51.458;7.556;2023-02-28T01:20:18;5.45;;;2.55;;
75774;SDS011;64505;51.458;7.556;2023-02-28T01:22:20;6.70;;;2.20;;
75774;SDS011;64505;51.458;7.556;2023-02-28T01:24:21;5.05;;;2.17;;
75774;SDS011;64505;51.458;7.556;2023-02-28T01:26:23;4.25;;;2.03;;
75774;SDS011;64505;51.458;7.556;2023-02-28T01:28:25;6.72;;;2.28;;
75774;SDS011;64505;51.458;7.556;2023-02-28T01:30:26;4.88;;;2.10;;
75774;SDS011;64505;51.458;7.556;2023-02-28T01:32:28;5.05;;;1.88;;
75774;SDS011;64505;51.458;7.556;2023-02-28T01:34:30;5.85;;;1.70;;
75774;SDS011;64505;51.458;7.556;2023-02-28T01:36:31;6.50;;;2.30;;
75774;SDS011;64505;51.458;7.556;2023-02-28T01:38:33;5.20;;;1.88;;
75774;SDS011;64505;51.458;7.556;2023-02-28T01:40:34;6.43;;;1.98;;
75774;SDS011;64505;51.458;7.556;2023-02-28T01:42:36;6.28;;;2.05;;
75774;SDS011;64505;51.458;7.556;2023-02-28T01:47:16;3.83;;;1.73;;
75774;SDS011;64505;51.458;7.556;2023-02-28T01:49:18;4.45;;;1.70;;
75774;SDS011;64505;51.458;7.556;2023-02-28T01:51:22;4.93;;;2.13;;
75774;SDS011;64505;51.458;7.556;2023-02-28T01:53:32;6.57;;;1.80;;
75774;SDS011;64505;51.458;7.556;2023-02-28T01:55:37;5.32;;;1.63;;
75774;SDS011;64505;51.458;7.556;2023-02-28T01:57:42;4.03;;;1.63;;
75774;SDS011;64505;51.458;7.556;2023-02-28T01:59:50;3.58;;;1.63;;
75774;SDS011;64505;51.458;7.556;2023-02-28T02:01:55;5.50;;;1.75;;
75774;SDS011;64505;51.458;7.556;2023-02-28T02:03:58;4.75;;;1.55;;
75774;SDS011;64505;51.458;7.556;2023-02-28T02:06:02;3.55;;;1.10;;
75774;SDS011;64505;51.458;7.556;2023-02-28T02:08:05;2.58;;;1.33;;
75774;SDS011;64505;51.458;7.556;2023-02-28T02:10:11;2.50;;;1.10;;
75774;SDS011;64505;51.458;7.556;2023-02-28T02:12:42;6.03;;;1.42;;
75774;SDS011;64505;51.458;7.556;2023-02-28T02:15:16;6.47;;;1.52;;
75774;SDS011;64505;51.458;7.556;2023-02-28T02:17:29;2.33;;;1.23;;
75774;SDS011;64505;51.458;7.556;2023-02-28T02:26:43;5.25;;;1.73;;
75774;SDS011;64505;51.458;7.556;2023-02-28T02:28:58;3.75;;;1.42;;
75774;SDS011;64505;51.458;7.556;2023-02-28T02:36:19;4.40;;;1.48;;
75774;SDS011;64505;51.458;7.556;2023-02-28T02:40:58;4.78;;;1.60;;
75774;SDS011;64505;51.458;7.556;2023-02-28T02:43:19;4.50;;;1.52;;
75774;SDS011;64505;51.458;7.556;2023-02-28T02:45:28;3.83;;;1.55;;
75774;SDS011;64505;51.458;7.556;2023-02-28T02:47:36;3.28;;;1.55;;
75774;SDS011;64505;51.458;7.556;2023-02-28T02:49:40;3.20;;;1.58;;
75774;SDS011;64505;51.458;7.556;2023-02-28T02:51:46;7.93;;;1.80;;
75774;SDS011;64505;51.458;7.556;2023-02-28T02:53:54;4.28;;;1.70;;
75774;SDS011;64505;51.458;7.556;2023-02-28T02:55:59;3.88;;;1.48;;
75774;SDS011;64505;51.458;7.556;2023-02-28T02:58:03;4.55;;;1.77;;
75774;SDS011;64505;51.458;7.556;2023-02-28T03:00:08;4.15;;;1.80;;
75774;SDS011;64505;51.458;7.556;2023-02-28T03:02:12;3.53;;;1.75;;
75774;SDS011;64505;51.458;7.556;2023-02-28T03:04:18;2.90;;;1.60;;
75774;SDS011;64505;51.458;7.556;2023-02-28T03:06:22;3.67;;;1.67;;
75774;SDS011;64505;51.458;7.556;2023-02-28T03:08:24;3.83;;;1.85;;
75774;SDS011;64505;51.458;7.556;2023-02-28T03:10:37;3.33;;;1.48;;
75774;SDS011;64505;51.458;7.556;2023-02-28T03:12:44;3.38;;;1.85;;
75774;SDS011;64505;51.458;7.556;2023-02-28T03:17:17;2.92;;;1.50;;
75774;SDS011;64505;51.458;7.556;2023-02-28T03:24:26;4.20;;;1.77;;
75774;SDS011;64505;51.458;7.556;2023-02-28T03:26:30;2.50;;;1.23;;
75774;SDS011;64505;51.458;7.556;2023-02-28T03:28:43;4.30;;;1.60;;
75774;SDS011;64505;51.458;7.556;2023-02-28T03:35:47;4.38;;;1.60;;
75774;SDS011;64505;51.458;7.556;2023-02-28T03:38:03;5.43;;;1.73;;
75774;SDS011;64505;51.458;7.556;2023-02-28T03:42:31;3.58;;;1.50;;
75774;SDS011;64505;51.458;7.556;2023-02-28T03:44:41;4.55;;;1.73;;
75774;SDS011;64505;51.458;7.556;2023-02-28T03:46:48;4.03;;;1.67;;
75774;SDS011;64505;51.458;7.556;2023-02-28T03:48:56;4.53;;;1.55;;
75774;SDS011;64505;51.458;7.556;2023-02-28T03:51:03;3.45;;;1.35;;
75774;SDS011;64505;51.458;7.556;2023-02-28T03:53:14;4.18;;;1.65;;
75774;SDS011;64505;51.458;7.556;2023-02-28T03:55:20;5.20;;;1.58;;
75774;SDS011;64505;51.458;7.556;2023-02-28T03:57:40;4.93;;;1.80;;
75774;SDS011;64505;51.458;7.556;2023-02-28T03:59:50;5.68;;;1.80;;
75774;SDS011;64505;51.458;7.556;2023-02-28T04:01:57;4.32;;;1.88;;
75774;SDS011;64505;51.458;7.556;2023-02-28T04:03:59;4.28;;;1.63;;
75774;SDS011;64505;51.458;7.556;2023-02-28T04:06:01;5.75;;;2.03;;
75774;SDS011;64505;51.458;7.556;2023-02-28T04:08:03;5.28;;;1.95;;
75774;SDS011;64505;51.458;7.556;2023-02-28T04:10:06;5.72;;;2.03;;
75774;SDS011;64505;51.458;7.556;2023-02-28T04:12:08;6.25;;;2.03;;
75774;SDS011;64505;51.458;7.556;2023-02-28T04:14:10;6.57;;;1.85;;
75774;SDS011;64505;51.458;7.556;2023-02-28T04:16:12;7.65;;;2.40;;
75774;SDS011;64505;51.458;7.556;2023-02-28T04:20:33;5.70;;;2.25;;
75774;SDS011;64505;51.458;7.556;2023-02-28T04:22:35;2.53;;;1.40;;
75774;SDS011;64505;51.458;7.556;2023-02-28T04:24:37;3.15;;;1.77;;
75774;SDS011;64505;51.458;7.556;2023-02-28T04:26:43;3.85;;;1.95;;
75774;SDS011;64505;51.458;7.556;2023-02-28T04:28:46;6.47;;;2.00;;
75774;SDS011;64505;51.458;7.556;2023-02-28T04:30:53;6.85;;;1.80;;
75774;SDS011;64505;51.458;7.556;2023-02-28T04:32:56;3.58;;;1.60;;
75774;SDS011;64505;51.458;7.556;2023-02-28T04:34:57;3.20;;;1.70;;
75774;SDS011;64505;51.458;7.556;2023-02-28T04:36:59;6.57;;;1.98;;
75774;SDS011;64505;51.458;7.556;2023-02-28T04:39:17;5.60;;;1.70;;
75774;SDS011;64505;51.458;7.556;2023-02-28T04:41:19;5.75;;;1.90;;
75774;SDS011;64505;51.458;7.556;2023-02-28T04:43:21;13.38;;;2.20;;
75774;SDS011;64505;51.458;7.556;2023-02-28T04:45:23;8.48;;;1.67;;
75774;SDS011;64505;51.458;7.556;2023-02-28T04:47:24;7.32;;;1.98;;
75774;SDS011;64505;51.458;7.556;2023-02-28T04:49:26;8.48;;;1.88;;
75774;SDS011;64505;51.458;7.556;2023-02-28T04:51:27;5.88;;;1.98;;
75774;SDS011;64505;51.458;7.556;2023-02-28T04:53:29;12.15;;;2.03;;
75774;SDS011;64505;51.458;7.556;2023-02-28T04:55:31;6.78;;;2.20;;
75774;SDS011;64505;51.458;7.556;2023-02-28T04:57:32;4.28;;;1.83;;
75774;SDS011;64505;51.458;7.556;2023-02-28T04:59:34;3.00;;;1.73;;
75774;SDS011;64505;51.458;7.556;2023-02-28T05:01:35;5.05;;;1.73;;
75774;SDS011;64505;51.458;7.556;2023-02-28T05:03:37;3.53;;;1.48;;
75774;SDS011;64505;51.458;7.556;2023-02-28T05:05:41;5.25;;;1.92;;
75774;SDS011;64505;51.458;7.556;2023-02-28T05:07:43;5.05;;;1.70;;
75774;SDS011;64505;51.458;7.556;2023-02-28T05:09:45;4.40;;;1.60;;
75774;SDS011;64505;51.458;7.556;2023-02-28T05:11:46;3.83;;;1.83;;
75774;SDS011;64505;51.458;7.556;2023-02-28T05:13:48;3.67;;;1.77;;
75774;SDS011;64505;51.458;7.556;2023-02-28T05:15:50;6.40;;;1.67;;
75774;SDS011;64505;51.458;7.556;2023-02-28T05:17:51;4.13;;;1.67;;
75774;SDS011;64505;51.458;7.556;2023-02-28T05:19:52;3.17;;;1.77;;
75774;SDS011;64505;51.458;7.556;2023-02-28T05:22:01;7.60;;;2.10;;
75774;SDS011;64505;51.458;7.556;2023-02-28T05:24:10;4.32;;;1.60;;
75774;SDS011;64505;51.458;7.556;2023-02-28T05:26:13;4.18;;;1.58;;
75774;SDS011;64505;51.458;7.556;2023-02-28T05:28:14;3.70;;;1.70;;
75774;SDS011;64505;51.458;7.556;2023-02-28T05:30:15;4.88;;;1.58;;
75774;SDS011;64505;51.458;7.556;2023-02-28T05:32:17;6.72;;;2.15;;
75774;SDS011;64505;51.458;7.556;2023-02-28T05:34:18;4.47;;;1.80;;
75774;SDS011;64505;51.458;7.556;2023-02-28T05:36:20;5.97;;;2.38;;
75774;SDS011;64505;51.458;7.556;2023-02-28T05:38:22;4.80;;;2.03;;
75774;SDS011;64505;51.458;7.556;2023-02-28T05:40:23;4.63;;;2.33;;
75774;SDS011;64505;51.458;7.556;2023-02-28T05:42:25;4.38;;;1.88;;
75774;SDS011;64505;51.458;7.556;2023-02-28T05:44:26;7.57;;;2.20;;
75774;SDS011;64505;51.458;7.556;2023-02-28T05:46:28;4.47;;;1.95;;
75774;SDS011;64505;51.458;7.556;2023-02-28T05:48:29;4.95;;;1.95;;
75774;SDS011;64505;51.458;7.556;2023-02-28T05:50:30;5.88;;;1.85;;
75774;SDS011;64505;51.458;7.556;2023-02-28T05:52:32;4.03;;;1.58;;
75774;SDS011;64505;51.458;7.556;2023-02-28T05:54:33;4.22;;;1.90;;
75774;SDS011;64505;51.458;7.556;2023-02-28T05:56:35;5.95;;;2.40;;
75774;SDS011;64505;51.458;7.556;2023-02-28T05:58:38;5.97;;;2.78;;
75774;SDS011;64505;51.458;7.556;2023-02-28T06:00:40;5.43;;;2.42;;
75774;SDS011;64505;51.458;7.556;2023-02-28T06:02:42;4.28;;;2.17;;
75774;SDS011;64505;51.458;7.556;2023-02-28T06:04:44;4.50;;;2.25;;
75774;SDS011;64505;51.458;7.556;2023-02-28T06:06:47;4.65;;;1.98;;
75774;SDS011;64505;51.458;7.556;2023-02-28T06:08:49;2.90;;;1.63;;
75774;SDS011;64505;51.458;7.556;2023-02-28T06:10:51;3.50;;;2.08;;
75774;SDS011;64505;51.458;7.556;2023-02-28T06:12:52;4.85;;;1.98;;
75774;SDS011;64505;51.458;7.556;2023-02-28T06:14:54;4.25;;;1.52;;
75774;SDS011;64505;51.458;7.556;2023-02-28T06:16:55;3.65;;;1.80;;
75774;SDS011;64505;51.458;7.556;2023-02-28T06:18:59;3.55;;;2.08;;
75774;SDS011;64505;51.458;7.556;2023-02-28T06:21:02;3.55;;;1.90;;
75774;SDS011;64505;51.458;7.556;2023-02-28T06:23:04;4.22;;;1.65;;
75774;SDS011;64505;51.458;7.556;2023-02-28T06:25:06;4.10;;;1.60;;
75774;SDS011;64505;51.458;7.556;2023-02-28T06:27:08;3.20;;;1.58;;
75774;SDS011;64505;51.458;7.556;2023-02-28T06:29:09;4.05;;;1.60;;
75774;SDS011;64505;51.458;7.556;2023-02-28T06:31:12;4.32;;;1.70;;
75774;SDS011;64505;51.458;7.556;2023-02-28T06:33:15;3.50;;;1.58;;
75774;SDS011;64505;51.458;7.556;2023-02-28T06:35:17;5.18;;;1.80;;
75774;SDS011;64505;51.458;7.556;2023-02-28T06:37:18;5.93;;;1.77;;
75774;SDS011;64505;51.458;7.556;2023-02-28T06:39:20;5.40;;;1.95;;
75774;SDS011;64505;51.458;7.556;2023-02-28T06:41:25;3.33;;;1.65;;
75774;SDS011;64505;51.458;7.556;2023-02-28T06:43:29;4.93;;;2.00;;
75774;SDS011;64505;51.458;7.556;2023-02-28T06:45:32;4.30;;;1.80;;
75774;SDS011;64505;51.458;7.556;2023-02-28T06:47:34;5.55;;;2.05;;
75774;SDS011;64505;51.458;7.556;2023-02-28T06:49:37;4.78;;;1.92;;
75774;SDS011;64505;51.458;7.556;2023-02-28T06:51:40;5.05;;;2.30;;
75774;SDS011;64505;51.458;7.556;2023-02-28T06:53:46;6.50;;;2.30;;
75774;SDS011;64505;51.458;7.556;2023-02-28T06:55:47;4.22;;;2.17;;
75774;SDS011;64505;51.458;7.556;2023-02-28T06:57:49;8.35;;;2.50;;
75774;SDS011;64505;51.458;7.556;2023-02-28T06:59:51;5.13;;;2.38;;
75774;SDS011;64505;51.458;7.556;2023-02-28T07:01:53;4.70;;;2.20;;
75774;SDS011;64505;51.458;7.556;2023-02-28T07:03:54;4.85;;;2.50;;
75774;SDS011;64505;51.458;7.556;2023-02-28T07:05:56;5.38;;;2.20;;
75774;SDS011;64505;51.458;7.556;2023-02-28T07:07:57;5.65;;;2.28;;
75774;SDS011;64505;51.458;7.556;2023-02-28T07:09:58;5.68;;;2.13;;
75774;SDS011;64505;51.458;7.556;2023-02-28T07:12:00;8.65;;;2.38;;
75774;SDS011;64505;51.458;7.556;2023-02-28T07:14:01;5.28;;;2.42;;
75774;SDS011;64505;51.458;7.556;2023-02-28T07:16:04;3.50;;;1.80;;
75774;SDS011;64505;51.458;7.556;2023-02-28T07:18:07;4.63;;;1.70;;
75774;SDS011;64505;51.458;7.556;2023-02-28T07:20:08;6.38;;;2.53;;
75774;SDS011;64505;51.458;7.556;2023-02-28T07:22:10;4.50;;;2.35;;
75774;SDS011;64505;51.458;7.556;2023-02-28T07:24:13;3.90;;;1.73;;
75774;SDS011;64505;51.458;7.556;2023-02-28T07:26:17;5.53;;;2.30;;
75774;SDS011;64505;51.458;7.556;2023-02-28T07:28:20;3.35;;;1.98;;
75774;SDS011;64505;51.458;7.556;2023-02-28T07:30:21;4.25;;;2.00;;
75774;SDS011;64505;51.458;7.556;2023-02-28T07:32:23;4.88;;;2.03;;
75774;SDS011;64505;51.458;7.556;2023-02-28T07:34:25;5.88;;;2.28;;
75774;SDS011;64505;51.458;7.556;2023-02-28T07:36:27;4.22;;;2.00;;
75774;SDS011;64505;51.458;7.556;2023-02-28T07:38:28;4.50;;;2.28;;
75774;SDS011;64505;51.458;7.556;2023-02-28T07:40:29;4.93;;;2.10;;
75774;SDS011;64505;51.458;7.556;2023-02-28T07:42:31;5.13;;;2.47;;
75774;SDS011;64505;51.458;7.556;2023-02-28T07:44:33;6.72;;;2.65;;
75774;SDS011;64505;51.458;7.556;2023-02-28T07:46:34;6.07;;;2.30;;
75774;SDS011;64505;51.458;7.556;2023-02-28T07:48:37;5.75;;;2.47;;
75774;SDS011;64505;51.458;7.556;2023-02-28T07:50:39;5.43;;;2.40;;
75774;SDS011;64505;51.458;7.556;2023-02-28T07:52:40;3.97;;;2.42;;
75774;SDS011;64505;51.458;7.556;2023-02-28T07:54:42;10.75;;;2.78;;
75774;SDS011;64505;51.458;7.556;2023-02-28T07:56:43;5.45;;;2.30;;
75774;SDS011;64505;51.458;7.556;2023-02-28T07:58:45;5.25;;;2.22;;
75774;SDS011;64505;51.458;7.556;2023-02-28T08:00:46;4.43;;;2.45;;
75774;SDS011;64505;51.458;7.556;2023-02-28T08:02:48;7.03;;;2.85;;
75774;SDS011;64505;51.458;7.556;2023-02-28T08:04:49;5.72;;;2.55;;
75774;SDS011;64505;51.458;7.556;2023-02-28T08:06:51;5.53;;;2.58;;
75774;SDS011;64505;51.458;7.556;2023-02-28T08:08:57;4.80;;;2.60;;
75774;SDS011;64505;51.458;7.556;2023-02-28T08:10:59;4.75;;;2.40;;
75774;SDS011;64505;51.458;7.556;2023-02-28T08:13:02;5.78;;;2.85;;
75774;SDS011;64505;51.458;7.556;2023-02-28T08:15:03;5.95;;;2.70;;
75774;SDS011;64505;51.458;7.556;2023-02-28T08:17:05;3.97;;;2.17;;
75774;SDS011;64505;51.458;7.556;2023-02-28T08:19:07;7.93;;;2.92;;
75774;SDS011;64505;51.458;7.556;2023-02-28T08:21:09;4.40;;;2.10;;
75774;SDS011;64505;51.458;7.556;2023-02-28T08:23:11;5.47;;;2.60;;
75774;SDS011;64505;51.458;7.556;2023-02-28T08:25:12;9.20;;;2.70;;
75774;SDS011;64505;51.458;7.556;2023-02-28T08:27:14;6.55;;;2.20;;
75774;SDS011;64505;51.458;7.556;2023-02-28T08:29:16;5.60;;;2.83;;
75774;SDS011;64505;51.458;7.556;2023-02-28T08:31:18;4.38;;;2.25;;
75774;SDS011;64505;51.458;7.556;2023-02-28T08:33:20;5.10;;;2.67;;
75774;SDS011;64505;51.458;7.556;2023-02-28T08:35:23;4.75;;;2.33;;
75774;SDS011;64505;51.458;7.556;2023-02-28T08:37:25;5.55;;;2.13;;
75774;SDS011;64505;51.458;7.556;2023-02-28T08:39:26;4.28;;;2.35;;
75774;SDS011;64505;51.458;7.556;2023-02-28T08:41:27;5.88;;;2.60;;
75774;SDS011;64505;51.458;7.556;2023-02-28T08:43:29;5.82;;;2.50;;
75774;SDS011;64505;51.458;7.556;2023-02-28T08:45:31;4.47;;;2.47;;
75774;SDS011;64505;51.458;7.556;2023-02-28T08:47:32;6.47;;;2.28;;
75774;SDS011;64505;51.458;7.556;2023-02-28T08:49:34;5.18;;;2.45;;
75774;SDS011;64505;51.458;7.556;2023-02-28T08:51:35;5.78;;;2.42;;
75774;SDS011;64505;51.458;7.556;2023-02-28T08:53:37;4.68;;;2.08;;
75774;SDS011;64505;51.458;7.556;2023-02-28T08:55:40;3.85;;;2.05;;
75774;SDS011;64505;51.458;7.556;2023-02-28T08:57:41;4.63;;;2.05;;
75774;SDS011;64505;51.458;7.556;2023-02-28T08:59:43;4.47;;;2.10;;
75774;SDS011;64505;51.458;7.556;2023-02-28T09:01:44;3.30;;;1.80;;
75774;SDS011;64505;51.458;7.556;2023-02-28T09:03:46;3.88;;;1.90;;
75774;SDS011;64505;51.458;7.556;2023-02-28T09:05:56;4.13;;;2.00;;
75774;SDS011;64505;51.458;7.556;2023-02-28T09:07:59;4.80;;;2.03;;
75774;SDS011;64505;51.458;7.556;2023-02-28T09:10:00;6.13;;;2.10;;
75774;SDS011;64505;51.458;7.556;2023-02-28T09:12:02;3.75;;;1.90;;
75774;SDS011;64505;51.458;7.556;2023-02-28T09:14:04;4.07;;;1.63;;
75774;SDS011;64505;51.458;7.556;2023-02-28T09:16:07;4.20;;;1.83;;
75774;SDS011;64505;51.458;7.556;2023-02-28T09:18:11;3.15;;;1.77;;
75774;SDS011;64505;51.458;7.556;2023-02-28T09:20:13;4.93;;;1.98;;
75774;SDS011;64505;51.458;7.556;2023-02-28T09:22:14;6.05;;;1.85;;
75774;SDS011;64505;51.458;7.556;2023-02-28T09:24:16;10.25;;;2.05;;
75774;SDS011;64505;51.458;7.556;2023-02-28T09:26:20;5.07;;;1.58;;
75774;SDS011;64505;51.458;7.556;2023-02-28T09:28:24;6.13;;;1.80;;
75774;SDS011;64505;51.458;7.556;2023-02-28T09:30:26;5.40;;;2.20;;
75774;SDS011;64505;51.458;7.556;2023-02-28T09:32:28;4.00;;;1.70;;
75774;SDS011;64505;51.458;7.556;2023-02-28T09:34:29;4.93;;;1.65;;
75774;SDS011;64505;51.458;7.556;2023-02-28T09:36:38;4.28;;;1.60;;
75774;SDS011;64505;51.458;7.556;2023-02-28T09:38:46;3.47;;;1.60;;
75774;SDS011;64505;51.458;7.556;2023-02-28T09:40:51;3.42;;;1.70;;
75774;SDS011;64505;51.458;7.556;2023-02-28T09:42:55;6.93;;;1.98;;
75774;SDS011;64505;51.458;7.556;2023-02-28T09:44:58;5.30;;;2.03;;
75774;SDS011;64505;51.458;7.556;2023-02-28T09:49:34;5.45;;;2.13;;
75774;SDS011;64505;51.458;7.556;2023-02-28T09:53:44;6.43;;;2.17;;
75774;SDS011;64505;51.458;7.556;2023-02-28T09:56:01;4.03;;;1.85;;
75774;SDS011;64505;51.458;7.556;2023-02-28T09:58:08;3.67;;;1.77;;
75774;SDS011;64505;51.458;7.556;2023-02-28T10:04:47;3.03;;;1.63;;
75774;SDS011;64505;51.458;7.556;2023-02-28T10:06:56;6.10;;;1.83;;
75774;SDS011;64505;51.458;7.556;2023-02-28T10:09:00;3.17;;;1.45;;
75774;SDS011;64505;51.458;7.556;2023-02-28T10:11:06;3.05;;;1.48;;
75774;SDS011;64505;51.458;7.556;2023-02-28T10:15:40;1.70;;;1.05;;
75774;SDS011;64505;51.458;7.556;2023-02-28T10:17:44;2.20;;;1.33;;
75774;SDS011;64505;51.458;7.556;2023-02-28T10:20:01;3.53;;;1.52;;
75774;SDS011;64505;51.458;7.556;2023-02-28T10:24:29;3.50;;;1.48;;
75774;SDS011;64505;51.458;7.556;2023-02-28T10:26:36;6.30;;;1.77;;
75774;SDS011;64505;51.458;7.556;2023-02-28T10:28:38;5.00;;;1.60;;
75774;SDS011;64505;51.458;7.556;2023-02-28T10:30:41;3.45;;;1.55;;
75774;SDS011;64505;51.458;7.556;2023-02-28T10:32:49;4.70;;;1.80;;
75774;SDS011;64505;51.458;7.556;2023-02-28T10:35:06;3.55;;;1.70;;
75774;SDS011;64505;51.458;7.556;2023-02-28T10:37:08;3.92;;;1.40;;
75774;SDS011;64505;51.458;7.556;2023-02-28T10:41:35;3.95;;;1.40;;
75774;SDS011;64505;51.458;7.556;2023-02-28T10:43:44;3.92;;;1.60;;
75774;SDS011;64505;51.458;7.556;2023-02-28T10:50:38;3.47;;;1.70;;
75774;SDS011;64505;51.458;7.556;2023-02-28T10:52:45;4.05;;;1.65;;
75774;SDS011;64505;51.458;7.556;2023-02-28T10:54:46;4.32;;;1.90;;
75774;SDS011;64505;51.458;7.556;2023-02-28T10:59:29;4.07;;;2.20;;
75774;SDS011;64505;51.458;7.556;2023-02-28T11:03:36;3.38;;;1.65;;
75774;SDS011;64505;51.458;7.556;2023-02-28T11:05:38;3.80;;;1.77;;
75774;SDS011;64505;51.458;7.556;2023-02-28T11:07:39;7.60;;;2.05;;
75774;SDS011;64505;51.458;7.556;2023-02-28T11:09:54;3.08;;;1.70;;
75774;SDS011;64505;51.458;7.556;2023-02-28T11:11:57;3.72;;;1.60;;
75774;SDS011;64505;51.458;7.556;2023-02-28T11:14:03;4.25;;;1.80;;
75774;SDS011;64505;51.458;7.556;2023-02-28T11:16:07;4.93;;;1.70;;
75774;SDS011;64505;51.458;7.556;2023-02-28T11:20:20;4.03;;;1.90;;
75774;SDS011;64505;51.458;7.556;2023-02-28T11:22:25;4.05;;;1.50;;
75774;SDS011;64505;51.458;7.556;2023-02-28T11:24:40;3.53;;;1.60;;
75774;SDS011;64505;51.458;7.556;2023-02-28T11:26:46;4.32;;;1.80;;
75774;SDS011;64505;51.458;7.556;2023-02-28T11:28:49;3.25;;;1.77;;
75774;SDS011;64505;51.458;7.556;2023-02-28T11:31:09;4.05;;;1.83;;
75774;SDS011;64505;51.458;7.556;2023-02-28T11:33:26;4.38;;;1.80;;
75774;SDS011;64505;51.458;7.556;2023-02-28T11:35:47;3.97;;;1.70;;
75774;SDS011;64505;51.458;7.556;2023-02-28T11:37:51;4.93;;;2.00;;
75774;SDS011;64505;51.458;7.556;2023-02-28T11:39:53;2.95;;;1.60;;
75774;SDS011;64505;51.458;7.556;2023-02-28T11:42:01;3.00;;;1.70;;
75774;SDS011;64505;51.458;7.556;2023-02-28T11:49:22;5.55;;;2.08;;
75774;SDS011;64505;51.458;7.556;2023-02-28T11:54:12;3.10;;;1.65;;
75774;SDS011;64505;51.458;7.556;2023-02-28T11:56:38;4.30;;;1.98;;
75774;SDS011;64505;51.458;7.556;2023-02-28T11:59:08;3.05;;;1.65;;
75774;SDS011;64505;51.458;7.556;2023-02-28T12:01:28;4.25;;;1.63;;
75774;SDS011;64505;51.458;7.556;2023-02-28T12:05:44;3.75;;;1.55;;
75774;SDS011;64505;51.458;7.556;2023-02-28T12:10:20;4.25;;;1.85;;
75774;SDS011;64505;51.458;7.556;2023-02-28T12:15:00;3.92;;;1.90;;
75774;SDS011;64505;51.458;7.556;2023-02-28T12:20:09;3.83;;;2.08;;
75774;SDS011;64505;51.458;7.556;2023-02-28T12:26:46;5.10;;;1.95;;
75774;SDS011;64505;51.458;7.556;2023-02-28T12:28:51;4.50;;;2.30;;
75774;SDS011;64505;51.458;7.556;2023-02-28T12:31:01;3.15;;;1.92;;
75774;SDS011;64505;51.458;7.556;2023-02-28T12:33:13;6.15;;;2.00;;
75774;SDS011;64505;51.458;7.556;2023-02-28T12:35:31;3.83;;;2.25;;
75774;SDS011;64505;51.458;7.556;2023-02-28T12:39:41;4.15;;;2.10;;
75774;SDS011;64505;51.458;7.556;2023-02-28T12:41:53;5.85;;;2.53;;
75774;SDS011;64505;51.458;7.556;2023-02-28T12:44:00;4.28;;;2.28;;
75774;SDS011;64505;51.458;7.556;2023-02-28T12:48:14;3.72;;;2.08;;
75774;SDS011;64505;51.458;7.556;2023-02-28T12:50:20;3.97;;;2.22;;
75774;SDS011;64505;51.458;7.556;2023-02-28T12:52:28;3.28;;;2.15;;
75774;SDS011;64505;51.458;7.556;2023-02-28T12:54:46;4.03;;;2.30;;
75774;SDS011;64505;51.458;7.556;2023-02-28T12:56:55;3.88;;;1.90;;
75774;SDS011;64505;51.458;7.556;2023-02-28T12:59:01;4.80;;;2.35;;
75774;SDS011;64505;51.458;7.556;2023-02-28T13:03:51;10.25;;;2.78;;
75774;SDS011;64505;51.458;7.556;2023-02-28T13:08:53;6.32;;;2.05;;
75774;SDS011;64505;51.458;7.556;2023-02-28T13:10:58;4.32;;;2.40;;
75774;SDS011;64505;51.458;7.556;2023-02-28T13:13:01;4.38;;;2.38;;
75774;SDS011;64505;51.458;7.556;2023-02-28T13:15:26;6.32;;;2.60;;
75774;SDS011;64505;51.458;7.556;2023-02-28T13:17:29;3.78;;;2.35;;
75774;SDS011;64505;51.458;7.556;2023-02-28T13:19:32;4.40;;;2.60;;
75774;SDS011;64505;51.458;7.556;2023-02-28T13:21:41;7.28;;;2.75;;
75774;SDS011;64505;51.458;7.556;2023-02-28T13:25:51;3.88;;;2.30;;
75774;SDS011;64505;51.458;7.556;2023-02-28T13:27:54;4.90;;;2.50;;
75774;SDS011;64505;51.458;7.556;2023-02-28T13:30:58;4.93;;;2.53;;
75774;SDS011;64505;51.458;7.556;2023-02-28T13:32:42;6.07;;;2.30;;
75774;SDS011;64505;51.458;7.556;2023-02-28T13:35:11;4.28;;;1.98;;
75774;SDS011;64505;51.458;7.556;2023-02-28T13:41:43;5.43;;;2.25;;
75774;SDS011;64505;51.458;7.556;2023-02-28T13:43:58;4.25;;;2.40;;
75774;SDS011;64505;51.458;7.556;2023-02-28T13:46:19;5.18;;;2.13;;
75774;SDS011;64505;51.458;7.556;2023-02-28T13:48:20;4.00;;;2.20;;
75774;SDS011;64505;51.458;7.556;2023-02-28T13:52:43;4.53;;;2.22;;
75774;SDS011;64505;51.458;7.556;2023-02-28T13:59:48;3.42;;;2.10;;
75774;SDS011;64505;51.458;7.556;2023-02-28T14:02:19;3.75;;;2.08;;
75774;SDS011;64505;51.458;7.556;2023-02-28T14:04:41;4.88;;;2.30;;
75774;SDS011;64505;51.458;7.556;2023-02-28T14:06:51;4.35;;;2.40;;
75774;SDS011;64505;51.458;7.556;2023-02-28T14:09:02;5.00;;;2.60;;
75774;SDS011;64505;51.458;7.556;2023-02-28T14:11:15;6.20;;;2.22;;
75774;SDS011;64505;51.458;7.556;2023-02-28T14:17:53;4.13;;;2.25;;
75774;SDS011;64505;51.458;7.556;2023-02-28T14:19:56;2.97;;;1.75;;
75774;SDS011;64505;51.458;7.556;2023-02-28T14:22:06;4.78;;;2.50;;
75774;SDS011;64505;51.458;7.556;2023-02-28T14:29:09;4.75;;;2.60;;
75774;SDS011;64505;51.458;7.556;2023-02-28T14:31:18;4.07;;;2.53;;